Arklow Rock — PBZM — position and weather

sailwx.info

Track history (hours):
 
Tides and Currents Weather Stations Pressure Air Temp Water Temp Dewpoint Dewpoint Depression Visibility Wind Speed Wind Dir Waves Ship Positions

Arklow Rock

Last reported at 2016-Aug-24 16:32 UTC. Time now 2016-Aug-25 18:24 UTC.
Position N 42°18' W 009°46'.

Length 90 m; draft 3.9 m.

Type: Cargo ship. MMSI: 246002000.

Date/timePositionNaut miles runAvg speedWind from/ knotsBaromVisibWave heightAir tempDewpointWater temp
2016-Aug-24 16:32N 42°18' W 009°46'1111.6
2016-Aug-24 15:33N 42°06' W 009°45'1311.5
2016-Aug-24 14:25N 41°53' W 009°45'7111.2
2016-Aug-24 08:05N 40°42' W 009°44'610.4
2016-Aug-24 07:33N 40°37' W 009°44'1010.4
2016-Aug-24 06:33N 40°26' W 009°44'2210.7
2016-Aug-24 04:29N 40°04' W 009°43'1011.1
2016-Aug-24 03:33N 39°54' W 009°43'1111.2
2016-Aug-24 02:33N 39°43' W 009°43'1611.2
2016-Aug-24 01:07N 39°26' W 009°44'710.6
2016-Aug-24 00:27N 39°19' W 009°43'910.4
2016-Aug-23 23:33N 39°10' W 009°43'1010.3
2016-Aug-23 22:33N 38°60' W 009°43'1110.6
2016-Aug-23 21:33N 38°49' W 009°42'1010.1
2016-Aug-23 20:33N 38°39' W 009°40'1110.7
2016-Aug-23 19:33N 38°37' W 009°27'1010.3
2016-Aug-23 18:33N 38°41' W 009°14'7 7.1
2016-Aug-23 17:33N 38°44' W 009°06'0 0.0
2016-Aug-23 16:31N 38°44' W 009°06'0 0.0
2016-Aug-23 15:31N 38°44' W 009°06'0 0.0
2016-Aug-23 14:28N 38°44' W 009°06'0 0.0
2016-Aug-23 13:31N 38°44' W 009°06'0 0.0
2016-Aug-23 12:31N 38°44' W 009°06'0 0.0
2016-Aug-23 11:19N 38°44' W 009°06'0 0.0
2016-Aug-23 10:31N 38°44' W 009°06'0 0.0
2016-Aug-23 09:22N 38°44' W 009°06'0 0.0
2016-Aug-23 08:31N 38°44' W 009°06'0 0.0
2016-Aug-23 07:31N 38°44' W 009°06'0 0.0
2016-Aug-23 06:31N 38°44' W 009°06'0 0.0
2016-Aug-23 05:28N 38°44' W 009°06'0 0.0
2016-Aug-23 04:31N 38°44' W 009°06'0 0.0
2016-Aug-23 03:31N 38°44' W 009°06'0 0.0
2016-Aug-23 02:31N 38°44' W 009°06'0 0.0
2016-Aug-23 01:31N 38°44' W 009°06'0 0.0
2016-Aug-23 00:31N 38°44' W 009°06'0 0.0
2016-Aug-22 23:28N 38°44' W 009°06'0 0.0
2016-Aug-22 22:16N 38°44' W 009°06'0 0.0
2016-Aug-22 21:34N 38°44' W 009°06'0 0.0
2016-Aug-22 20:34N 38°44' W 009°06'0 0.0
2016-Aug-22 19:33N 38°44' W 009°06'2 2.2
2016-Aug-22 18:32N 38°42' W 009°08'10 9.8
2016-Aug-22 17:33N 38°39' W 009°20'4 3.0
2016-Aug-22 16:16N 38°40' W 009°25'0 0.0
2016-Aug-22 15:31N 38°40' W 009°25'0 0.0
2016-Aug-22 14:22N 38°40' W 009°25'0 0.0
2016-Aug-22 13:28N 38°40' W 009°25'0 0.0
2016-Aug-22 12:31N 38°40' W 009°25'0 0.1
2016-Aug-22 11:31N 38°40' W 009°25'0 0.1
2016-Aug-22 10:31N 38°40' W 009°25'0 0.0
2016-Aug-22 09:25N 38°40' W 009°25'0 0.1
2016-Aug-22 08:31N 38°40' W 009°25'0 0.0
2016-Aug-22 07:31N 38°40' W 009°25'0 0.0
2016-Aug-22 06:31N 38°40' W 009°25'0 0.0
2016-Aug-22 05:31N 38°40' W 009°25'0 0.0
2016-Aug-22 04:31N 38°40' W 009°25'0 0.0
2016-Aug-22 03:31N 38°40' W 009°25'0 0.0
2016-Aug-22 02:19N 38°40' W 009°25'0 0.0
2016-Aug-22 01:31N 38°40' W 009°25'0 0.1
2016-Aug-22 00:31N 38°40' W 009°25'0 0.0
2016-Aug-21 23:31N 38°40' W 009°25'0 0.0
2016-Aug-21 22:31N 38°40' W 009°25'0 0.0
2016-Aug-21 21:25N 38°40' W 009°25'0 0.1
2016-Aug-21 20:25N 38°40' W 009°25'0 0.0
2016-Aug-21 19:28N 38°40' W 009°25'0 0.0
2016-Aug-21 18:22N 38°40' W 009°25'0 0.0
2016-Aug-21 17:31N 38°40' W 009°25'0 0.0
2016-Aug-21 16:25N 38°40' W 009°25'0 0.0
2016-Aug-21 15:34N 38°40' W 009°25'0 0.0
2016-Aug-21 14:31N 38°40' W 009°25'0 0.0
2016-Aug-21 13:33N 38°40' W 009°25'0 0.0
2016-Aug-21 12:33N 38°40' W 009°25'0 0.0
2016-Aug-21 11:21N 38°40' W 009°25'0 0.0
2016-Aug-21 10:33N 38°40' W 009°25'0 0.0
2016-Aug-21 08:24N 38°40' W 009°25'0 0.0
2016-Aug-21 06:27N 38°40' W 009°25'0 0.0
2016-Aug-20 22:09N 38°40' W 009°25'0 0.1
2016-Aug-20 21:33N 38°40' W 009°25'0 0.0
2016-Aug-20 20:33N 38°40' W 009°25'0 0.0
2016-Aug-20 19:30N 38°40' W 009°25'0 0.0
2016-Aug-20 18:27N 38°40' W 009°25'0 0.0
2016-Aug-20 17:33N 38°40' W 009°25'0 0.0
2016-Aug-20 16:33N 38°40' W 009°25'0 0.0
2016-Aug-20 15:27N 38°40' W 009°25'0 0.0
2016-Aug-20 14:33N 38°40' W 009°25'0 0.0
2016-Aug-20 13:27N 38°40' W 009°25'0 0.0
2016-Aug-20 12:33N 38°40' W 009°25'0 0.0
2016-Aug-20 11:33N 38°40' W 009°25'0 0.0
2016-Aug-20 09:33N 38°40' W 009°25'0 0.0
2016-Aug-20 08:33N 38°40' W 009°25'0 0.0
2016-Aug-20 07:33N 38°40' W 009°25'0 0.0
2016-Aug-20 06:30N 38°40' W 009°25'0 0.0
2016-Aug-20 05:33N 38°40' W 009°25'0 0.1
2016-Aug-20 04:33N 38°40' W 009°25'0 0.0
2016-Aug-20 03:26N 38°40' W 009°25'0 0.0
2016-Aug-20 02:32N 38°40' W 009°25'0 0.0
2016-Aug-20 01:32N 38°40' W 009°25'0 0.1
2016-Aug-20 00:32N 38°40' W 009°25'0 0.0
2016-Aug-19 23:29N 38°40' W 009°25'0 0.0
2016-Aug-19 22:32N 38°40' W 009°25'0 0.0
2016-Aug-19 18:23N 38°40' W 009°25'0 0.0
2016-Aug-19 17:20N 38°40' W 009°25'0 0.0
2016-Aug-19 16:17N 38°40' W 009°25'1 1.1
2016-Aug-19 15:33N 38°39' W 009°25'1 0.1
2016-Aug-19 04:15N 38°40' W 009°24'0 0.0
2016-Aug-19 03:30N 38°40' W 009°24'0 0.0
2016-Aug-19 02:30N 38°40' W 009°24'0 0.0
2016-Aug-19 01:33N 38°40' W 009°24'0 0.0
2016-Aug-19 00:32N 38°40' W 009°24'0 0.1
2016-Aug-18 23:32N 38°40' W 009°24'0 0.1
2016-Aug-18 22:32N 38°40' W 009°24'0 0.0
2016-Aug-18 21:32N 38°40' W 009°24'0 0.0
2016-Aug-18 20:33N 38°40' W 009°24'0 0.0
2016-Aug-18 19:32N 38°40' W 009°24'0 0.0
2016-Aug-18 18:32N 38°40' W 009°24'0 0.0
2016-Aug-18 17:32N 38°40' W 009°24'0 0.0
2016-Aug-18 16:26N 38°40' W 009°24'0 0.0
2016-Aug-18 15:32N 38°40' W 009°24'0 0.0
2016-Aug-18 14:32N 38°40' W 009°24'0 0.0
2016-Aug-18 13:32N 38°40' W 009°24'0 0.0
2016-Aug-18 12:32N 38°40' W 009°24'0 0.0
2016-Aug-18 11:32N 38°40' W 009°24'0 0.0
2016-Aug-18 10:32N 38°40' W 009°24'0 0.0
2016-Aug-18 09:20N 38°40' W 009°24'0 0.1
2016-Aug-18 08:29N 38°40' W 009°24'0 0.0
2016-Aug-18 07:32N 38°40' W 009°24'0 0.0
2016-Aug-18 06:32N 38°40' W 009°24'0 0.0
2016-Aug-18 05:32N 38°40' W 009°24'0 0.0
2016-Aug-18 04:32N 38°40' W 009°24'0 0.0
2016-Aug-18 03:05N 38°40' W 009°24'0 0.0
2016-Aug-18 02:29N 38°40' W 009°24'0 0.0
2016-Aug-18 01:32N 38°40' W 009°24'0 0.0
2016-Aug-18 00:32N 38°40' W 009°24'0 0.1
2016-Aug-17 23:32N 38°40' W 009°25'0 0.1
2016-Aug-17 22:32N 38°40' W 009°24'0 0.1
2016-Aug-17 21:32N 38°40' W 009°24'0 0.0
2016-Aug-17 20:32N 38°39' W 009°24'0 0.0
2016-Aug-17 19:32N 38°39' W 009°24'0 0.0
2016-Aug-17 18:32N 38°39' W 009°24'0 0.0
2016-Aug-17 17:32N 38°39' W 009°24'0 0.0
2016-Aug-17 16:32N 38°40' W 009°24'0 0.0
2016-Aug-17 15:32N 38°40' W 009°24'0 0.0
2016-Aug-17 14:28N 38°40' W 009°24'0 0.0
2016-Aug-17 13:31N 38°40' W 009°24'0 0.0
2016-Aug-17 12:13N 38°40' W 009°24'0 0.0
2016-Aug-17 11:31N 38°40' W 009°24'0 0.0
2016-Aug-17 09:07N 38°40' W 009°24'0 0.0
2016-Aug-17 08:10N 38°40' W 009°24'0 0.0
2016-Aug-17 07:31N 38°40' W 009°24'0 0.0
2016-Aug-17 06:28N 38°40' W 009°24'0 0.0
2016-Aug-17 05:31N 38°40' W 009°24'0 0.0
2016-Aug-17 04:28N 38°40' W 009°24'0 0.0
2016-Aug-17 03:31N 38°40' W 009°24'0 0.0
2016-Aug-17 02:28N 38°40' W 009°24'0 0.0
2016-Aug-17 01:25N 38°40' W 009°24'0 0.0
2016-Aug-17 00:31N 38°40' W 009°24'0 0.0
2016-Aug-16 23:31N 38°40' W 009°24'0 0.0
2016-Aug-16 22:28N 38°40' W 009°24'0 0.0
2016-Aug-16 21:31N 38°40' W 009°24'0 0.0
2016-Aug-16 20:31N 38°40' W 009°24'0 0.0
2016-Aug-16 19:31N 38°40' W 009°24'0 0.0
2016-Aug-16 18:31N 38°39' W 009°24'0 0.0
2016-Aug-16 17:31N 38°40' W 009°24'0 0.0
2016-Aug-16 16:31N 38°40' W 009°24'0 0.4
2016-Aug-16 15:33N 38°39' W 009°25'1010.0
2016-Aug-16 14:33N 38°39' W 009°38'9 8.9
2016-Aug-16 13:33N 38°47' W 009°43'1211.6
2016-Aug-16 12:33N 38°58' W 009°44'1111.5
2016-Aug-16 11:33N 39°10' W 009°44'  
Track history (hours):
 
Tides and Currents Weather Stations Pressure Air Temp Water Temp Dewpoint Dewpoint Depression Visibility Wind Speed Wind Dir Waves Ship Positions

Arklow Rock

Last reported at 2016-Aug-24 16:32 UTC. Time now 2016-Aug-25 18:24 UTC.
Position N 42°18' W 009°46'.

Length 90 m; draft 3.9 m.

Type: Cargo ship. MMSI: 246002000.

Date/timePositionNaut miles runAvg speedWind from/ knotsBaromVisibWave heightAir tempDewpointWater temp
2016-Aug-24 16:32N 42°18' W 009°46'1111.6
2016-Aug-24 15:33N 42°06' W 009°45'1311.5
2016-Aug-24 14:25N 41°53' W 009°45'7111.2
2016-Aug-24 08:05N 40°42' W 009°44'610.4
2016-Aug-24 07:33N 40°37' W 009°44'1010.4
2016-Aug-24 06:33N 40°26' W 009°44'2210.7
2016-Aug-24 04:29N 40°04' W 009°43'1011.1
2016-Aug-24 03:33N 39°54' W 009°43'1111.2
2016-Aug-24 02:33N 39°43' W 009°43'1611.2
2016-Aug-24 01:07N 39°26' W 009°44'710.6
2016-Aug-24 00:27N 39°19' W 009°43'910.4
2016-Aug-23 23:33N 39°10' W 009°43'1010.3
2016-Aug-23 22:33N 38°60' W 009°43'1110.6
2016-Aug-23 21:33N 38°49' W 009°42'1010.1
2016-Aug-23 20:33N 38°39' W 009°40'1110.7
2016-Aug-23 19:33N 38°37' W 009°27'1010.3
2016-Aug-23 18:33N 38°41' W 009°14'7 7.1
2016-Aug-23 17:33N 38°44' W 009°06'0 0.0
2016-Aug-23 16:31N 38°44' W 009°06'0 0.0
2016-Aug-23 15:31N 38°44' W 009°06'0 0.0
2016-Aug-23 14:28N 38°44' W 009°06'0 0.0
2016-Aug-23 13:31N 38°44' W 009°06'0 0.0
2016-Aug-23 12:31N 38°44' W 009°06'0 0.0
2016-Aug-23 11:19N 38°44' W 009°06'0 0.0
2016-Aug-23 10:31N 38°44' W 009°06'0 0.0
2016-Aug-23 09:22N 38°44' W 009°06'0 0.0
2016-Aug-23 08:31N 38°44' W 009°06'0 0.0
2016-Aug-23 07:31N 38°44' W 009°06'0 0.0
2016-Aug-23 06:31N 38°44' W 009°06'0 0.0
2016-Aug-23 05:28N 38°44' W 009°06'0 0.0
2016-Aug-23 04:31N 38°44' W 009°06'0 0.0
2016-Aug-23 03:31N 38°44' W 009°06'0 0.0
2016-Aug-23 02:31N 38°44' W 009°06'0 0.0
2016-Aug-23 01:31N 38°44' W 009°06'0 0.0
2016-Aug-23 00:31N 38°44' W 009°06'0 0.0
2016-Aug-22 23:28N 38°44' W 009°06'0 0.0
2016-Aug-22 22:16N 38°44' W 009°06'0 0.0
2016-Aug-22 21:34N 38°44' W 009°06'0 0.0
2016-Aug-22 20:34N 38°44' W 009°06'0 0.0
2016-Aug-22 19:33N 38°44' W 009°06'2 2.2
2016-Aug-22 18:32N 38°42' W 009°08'10 9.8
2016-Aug-22 17:33N 38°39' W 009°20'4 3.0
2016-Aug-22 16:16N 38°40' W 009°25'0 0.0
2016-Aug-22 15:31N 38°40' W 009°25'0 0.0
2016-Aug-22 14:22N 38°40' W 009°25'0 0.0
2016-Aug-22 13:28N 38°40' W 009°25'0 0.0
2016-Aug-22 12:31N 38°40' W 009°25'0 0.1
2016-Aug-22 11:31N 38°40' W 009°25'0 0.1
2016-Aug-22 10:31N 38°40' W 009°25'0 0.0
2016-Aug-22 09:25N 38°40' W 009°25'0 0.1
2016-Aug-22 08:31N 38°40' W 009°25'0 0.0
2016-Aug-22 07:31N 38°40' W 009°25'0 0.0
2016-Aug-22 06:31N 38°40' W 009°25'0 0.0
2016-Aug-22 05:31N 38°40' W 009°25'0 0.0
2016-Aug-22 04:31N 38°40' W 009°25'0 0.0
2016-Aug-22 03:31N 38°40' W 009°25'0 0.0
2016-Aug-22 02:19N 38°40' W 009°25'0 0.0
2016-Aug-22 01:31N 38°40' W 009°25'0 0.1
2016-Aug-22 00:31N 38°40' W 009°25'0 0.0
2016-Aug-21 23:31N 38°40' W 009°25'0 0.0
2016-Aug-21 22:31N 38°40' W 009°25'0 0.0
2016-Aug-21 21:25N 38°40' W 009°25'0 0.1
2016-Aug-21 20:25N 38°40' W 009°25'0 0.0
2016-Aug-21 19:28N 38°40' W 009°25'0 0.0
2016-Aug-21 18:22N 38°40' W 009°25'0 0.0
2016-Aug-21 17:31N 38°40' W 009°25'0 0.0
2016-Aug-21 16:25N 38°40' W 009°25'0 0.0
2016-Aug-21 15:34N 38°40' W 009°25'0 0.0
2016-Aug-21 14:31N 38°40' W 009°25'0 0.0
2016-Aug-21 13:33N 38°40' W 009°25'0 0.0
2016-Aug-21 12:33N 38°40' W 009°25'0 0.0
2016-Aug-21 11:21N 38°40' W 009°25'0 0.0
2016-Aug-21 10:33N 38°40' W 009°25'0 0.0
2016-Aug-21 08:24N 38°40' W 009°25'0 0.0
2016-Aug-21 06:27N 38°40' W 009°25'0 0.0
2016-Aug-20 22:09N 38°40' W 009°25'0 0.1
2016-Aug-20 21:33N 38°40' W 009°25'0 0.0
2016-Aug-20 20:33N 38°40' W 009°25'0 0.0
2016-Aug-20 19:30N 38°40' W 009°25'0 0.0
2016-Aug-20 18:27N 38°40' W 009°25'0 0.0
2016-Aug-20 17:33N 38°40' W 009°25'0 0.0
2016-Aug-20 16:33N 38°40' W 009°25'0 0.0
2016-Aug-20 15:27N 38°40' W 009°25'0 0.0
2016-Aug-20 14:33N 38°40' W 009°25'0 0.0
2016-Aug-20 13:27N 38°40' W 009°25'0 0.0
2016-Aug-20 12:33N 38°40' W 009°25'0 0.0
2016-Aug-20 11:33N 38°40' W 009°25'0 0.0
2016-Aug-20 09:33N 38°40' W 009°25'0 0.0
2016-Aug-20 08:33N 38°40' W 009°25'0 0.0
2016-Aug-20 07:33N 38°40' W 009°25'0 0.0
2016-Aug-20 06:30N 38°40' W 009°25'0 0.0
2016-Aug-20 05:33N 38°40' W 009°25'0 0.1
2016-Aug-20 04:33N 38°40' W 009°25'0 0.0
2016-Aug-20 03:26N 38°40' W 009°25'0 0.0
2016-Aug-20 02:32N 38°40' W 009°25'0 0.0
2016-Aug-20 01:32N 38°40' W 009°25'0 0.1
2016-Aug-20 00:32N 38°40' W 009°25'0 0.0
2016-Aug-19 23:29N 38°40' W 009°25'0 0.0
2016-Aug-19 22:32N 38°40' W 009°25'0 0.0
2016-Aug-19 18:23N 38°40' W 009°25'0 0.0
2016-Aug-19 17:20N 38°40' W 009°25'0 0.0
2016-Aug-19 16:17N 38°40' W 009°25'1 1.1
2016-Aug-19 15:33N 38°39' W 009°25'1 0.1
2016-Aug-19 04:15N 38°40' W 009°24'0 0.0
2016-Aug-19 03:30N 38°40' W 009°24'0 0.0
2016-Aug-19 02:30N 38°40' W 009°24'0 0.0
2016-Aug-19 01:33N 38°40' W 009°24'0 0.0
2016-Aug-19 00:32N 38°40' W 009°24'0 0.1
2016-Aug-18 23:32N 38°40' W 009°24'0 0.1
2016-Aug-18 22:32N 38°40' W 009°24'0 0.0
2016-Aug-18 21:32N 38°40' W 009°24'0 0.0
2016-Aug-18 20:33N 38°40' W 009°24'0 0.0
2016-Aug-18 19:32N 38°40' W 009°24'0 0.0
2016-Aug-18 18:32N 38°40' W 009°24'0 0.0
2016-Aug-18 17:32N 38°40' W 009°24'0 0.0
2016-Aug-18 16:26N 38°40' W 009°24'0 0.0
2016-Aug-18 15:32N 38°40' W 009°24'0 0.0
2016-Aug-18 14:32N 38°40' W 009°24'0 0.0
2016-Aug-18 13:32N 38°40' W 009°24'0 0.0
2016-Aug-18 12:32N 38°40' W 009°24'0 0.0
2016-Aug-18 11:32N 38°40' W 009°24'0 0.0
2016-Aug-18 10:32N 38°40' W 009°24'0 0.0
2016-Aug-18 09:20N 38°40' W 009°24'0 0.1
2016-Aug-18 08:29N 38°40' W 009°24'0 0.0
2016-Aug-18 07:32N 38°40' W 009°24'0 0.0
2016-Aug-18 06:32N 38°40' W 009°24'0 0.0
2016-Aug-18 05:32N 38°40' W 009°24'0 0.0
2016-Aug-18 04:32N 38°40' W 009°24'0 0.0
2016-Aug-18 03:05N 38°40' W 009°24'0 0.0
2016-Aug-18 02:29N 38°40' W 009°24'0 0.0
2016-Aug-18 01:32N 38°40' W 009°24'0 0.0
2016-Aug-18 00:32N 38°40' W 009°24'0 0.1
2016-Aug-17 23:32N 38°40' W 009°25'0 0.1
2016-Aug-17 22:32N 38°40' W 009°24'0 0.1
2016-Aug-17 21:32N 38°40' W 009°24'0 0.0
2016-Aug-17 20:32N 38°39' W 009°24'0 0.0
2016-Aug-17 19:32N 38°39' W 009°24'0 0.0
2016-Aug-17 18:32N 38°39' W 009°24'0 0.0
2016-Aug-17 17:32N 38°39' W 009°24'0 0.0
2016-Aug-17 16:32N 38°40' W 009°24'0 0.0
2016-Aug-17 15:32N 38°40' W 009°24'0 0.0
2016-Aug-17 14:28N 38°40' W 009°24'0 0.0
2016-Aug-17 13:31N 38°40' W 009°24'0 0.0
2016-Aug-17 12:13N 38°40' W 009°24'0 0.0
2016-Aug-17 11:31N 38°40' W 009°24'0 0.0
2016-Aug-17 09:07N 38°40' W 009°24'0 0.0
2016-Aug-17 08:10N 38°40' W 009°24'0 0.0
2016-Aug-17 07:31N 38°40' W 009°24'0 0.0
2016-Aug-17 06:28N 38°40' W 009°24'0 0.0
2016-Aug-17 05:31N 38°40' W 009°24'0 0.0
2016-Aug-17 04:28N 38°40' W 009°24'0 0.0
2016-Aug-17 03:31N 38°40' W 009°24'0 0.0
2016-Aug-17 02:28N 38°40' W 009°24'0 0.0
2016-Aug-17 01:25N 38°40' W 009°24'0 0.0
2016-Aug-17 00:31N 38°40' W 009°24'0 0.0
2016-Aug-16 23:31N 38°40' W 009°24'0 0.0
2016-Aug-16 22:28N 38°40' W 009°24'0 0.0
2016-Aug-16 21:31N 38°40' W 009°24'0 0.0
2016-Aug-16 20:31N 38°40' W 009°24'0 0.0
2016-Aug-16 19:31N 38°40' W 009°24'0 0.0
2016-Aug-16 18:31N 38°39' W 009°24'0 0.0
2016-Aug-16 17:31N 38°40' W 009°24'0 0.0
2016-Aug-16 16:31N 38°40' W 009°24'0 0.4
2016-Aug-16 15:33N 38°39' W 009°25'1010.0
2016-Aug-16 14:33N 38°39' W 009°38'9 8.9
2016-Aug-16 13:33N 38°47' W 009°43'1211.6
2016-Aug-16 12:33N 38°58' W 009°44'1111.5
2016-Aug-16 11:33N 39°10' W 009°44'  

Dump ship's entire track history